Limaville, OH (44640)

9:10 PM EDT on September 21, 2014 (GMT -0400)
Alliance WX | Change Station
CLOSE
Current Station
Personal Weather Station
Location: Alliance, OH
Elevation: 1204 ft
Nearby Weather Stations

Elev 1204 ft 40.92 °N, 81.13 °W | Updated 1 minute ago

Overcast
Overcast
60.2 °F
Feels Like 60.2 °F
N
0.0
Wind Variable Wind from NNW
Gusts 2.0 mph

Today
High -- | Low -- °F
--% Chance of Precip.
Yesterday
High -- | Low -- °F
Precip. -- in
7:11 AM 7:23 PM
Waning Crescent, 5% visible
Pressure 29.83 in
Visibility 10.0 miles
Clouds Mostly Cloudy 3300 ft
Overcast 4000 ft
Dew Point 55 °F
Humidity 82%
Rainfall 0.06 in
Snow Depth Not available.
UV 0 out of 12
Pollen .70 out of 12
Air Quality Not available.
Flu Activity Not available.
METAR KCAK 220051Z 28012G18KT 10SM BKN033 OVC040 16/10 A2984 RMK AO2 SLP100 T01610100

More Conditions Fewer Conditions

Pressure 29.83 in
Visibility 10.0 miles
Clouds Mostly Cloudy 3300 ft
Overcast 4000 ft
Dew Point 55 °F
Humidity 82%
Rainfall 0.06 in
Snow Depth Not available.
UV 0 out of 12
Pollen .70 out of 12
Air Quality Not available.
Flu Activity Not available.
METAR KCAK 220051Z 28012G18KT 10SM BKN033 OVC040 16/10 A2984 RMK AO2 SLP100 T01610100

More Conditions Fewer Conditions

10-Day Weather Forecast

Almanac

Astronomy

Sep. 21, 2014 Rise Set
Actual Time 7:11 AM EDT 7:23 PM EDT
Civil Twilight 6:43 AM EDT 7:50 PM EDT
Nautical Twilight 6:11 AM EDT 8:23 PM EDT
Astronomical Twilight 5:38 AM EDT 8:55 PM EDT
Moon 4:42 AM EDT (9/21) 5:59 PM EDT (9/21)
Length of Visible Light 13h 07m
Length of Day
12h 12m
Tomorrow will be 2m 43s shorter.
Waning Crescent, 5% of the Moon is Illuminated
Today
Waning Crescent
Sep 24
New
Oct 1
First Quarter
Oct 8
Full
Oct 15
Last Quarter

Today's Extremes

State Highs State Lows

Community

WunderPhotos

Upload Photos

1,755,324 photos uploaded!

WunderBlogs® & News

Nearby

Snow Depth

Station Depth Elevation
No new snow has been reported.

Earthquake Activity

City Distance Mag. Time & Date
No recent earthquake activity has been reported nearby.
Minimum magnitude displayed is 2.5.

Coastal Water Temperatures

Place Temperature
No Stations Reporting

Nearby Weather Stations